Hlavní strana
METAR-TAF:

METAR-TAF

Letiště :

Rarotonga, Cookovy ostrovy

zeměpisná šířka: 21-12S, zeměpisná délka: 159-49W, výška: 7 m

Aktuální stav počasí

Zpráva byla vytvořena před 50 minutami, v 13:00 UTC
Východoseverovýchodní vítr 7 kt
Teplota 24°C
Vlhkost vzduchu 74%
Tlak 1013 hPa
Viditelnost 10 km a více
Polojasno ve výšce 2000 ft

METAR: NCRG 251300Z 06007KT 9999 SCT020 24/19 Q1013

Čas: 03:50 (13:50 UTC)

Předpověď počasí

Zpráva byla vytvořena před 2 hodinami a 23 minutami, v 11:27 UTC
Předpověď platná od 25 v 12 UTC do 26 v 12 UTC
Východní vítr 7 kt
Viditelnost 10 km a více
Polojasno ve výšce 2000 ft
Dočasný
od 25 v 12 UTC do 25 v 19 UTC
Viditelnost: 8000 m
Polojasno ve výšce 1800 ft
Polojasno ve výšce 4000 ft
dešťové přeháňky

TAF: NCRG 251127Z 2512/2612 08007KT 9999 SCT020 TEMPO 2512/2519 8000 SHRA SCT018 SCT040

Stav a předpovědi počasí z více než 4 000 letišť (zprávy METAR a TAF).

Červené a žluté tečky na mapě představují dostupné meteorologické stanice.

Když kurzor umístíte na tečku, zobrazí se název stanice.

Pak kliknutím zobrazíte stav a předpověď počasí.

Chcete-li změnit mapu, kliknutím na zelené tlačítko se znaménkem +mapu přiblížíte, kliknutím na zelené tlačítko se znaménkem – mapu oddálíte a kliknutím na zelené šipky přejdete na sousední mapy.


METAR-TAF: